sensor_id;sensor_type;location;lat;lon;timestamp;pressure;altitude;pressure_sealevel;temperature;humidity
74343;BME280;62767;50.300;8.070;2022-08-21T00:00:41;100114.47;;;17.12;57.77
74343;BME280;62767;50.300;8.070;2022-08-21T00:03:09;100114.31;;;17.14;57.82
74343;BME280;62767;50.300;8.070;2022-08-21T00:05:47;100106.34;;;17.03;58.12
74343;BME280;62767;50.300;8.070;2022-08-21T00:08:14;100101.53;;;16.79;58.36
74343;BME280;62767;50.300;8.070;2022-08-21T00:10:41;100104.09;;;16.62;59.12
74343;BME280;62767;50.300;8.070;2022-08-21T00:13:07;100107.31;;;16.93;58.14
74343;BME280;62767;50.300;8.070;2022-08-21T00:15:35;100100.47;;;16.97;58.43
74343;BME280;62767;50.300;8.070;2022-08-21T00:18:02;100099.47;;;16.63;58.95
74343;BME280;62767;50.300;8.070;2022-08-21T00:20:29;100108.84;;;16.60;59.36
74343;BME280;62767;50.300;8.070;2022-08-21T00:22:55;100097.50;;;17.09;57.85
74343;BME280;62767;50.300;8.070;2022-08-21T00:25:20;100108.81;;;17.74;56.31
74343;BME280;62767;50.300;8.070;2022-08-21T00:27:46;100095.38;;;17.81;55.70
74343;BME280;62767;50.300;8.070;2022-08-21T00:30:14;100105.59;;;17.45;56.40
74343;BME280;62767;50.300;8.070;2022-08-21T00:32:41;100107.06;;;17.31;56.94
74343;BME280;62767;50.300;8.070;2022-08-21T00:35:11;100114.38;;;17.04;57.73
74343;BME280;62767;50.300;8.070;2022-08-21T00:37:39;100109.38;;;17.43;56.68
74343;BME280;62767;50.300;8.070;2022-08-21T00:40:06;100109.97;;;17.29;57.00
74343;BME280;62767;50.300;8.070;2022-08-21T00:42:32;100113.22;;;17.33;56.94
74343;BME280;62767;50.300;8.070;2022-08-21T00:44:58;100110.69;;;16.87;58.17
74343;BME280;62767;50.300;8.070;2022-08-21T00:47:24;100111.75;;;16.59;59.32
74343;BME280;62767;50.300;8.070;2022-08-21T00:49:50;100108.41;;;16.65;58.67
74343;BME280;62767;50.300;8.070;2022-08-21T00:52:23;100106.31;;;16.77;58.53
74343;BME280;62767;50.300;8.070;2022-08-21T00:54:50;100106.19;;;16.33;59.50
74343;BME280;62767;50.300;8.070;2022-08-21T00:57:18;100115.78;;;16.19;60.42
74343;BME280;62767;50.300;8.070;2022-08-21T00:59:48;100112.75;;;16.22;60.20
74343;BME280;62767;50.300;8.070;2022-08-21T01:02:16;100107.34;;;16.12;60.45
74343;BME280;62767;50.300;8.070;2022-08-21T01:04:42;100101.78;;;16.04;60.53
74343;BME280;62767;50.300;8.070;2022-08-21T01:07:08;100108.44;;;16.19;60.57
74343;BME280;62767;50.300;8.070;2022-08-21T01:09:34;100100.13;;;16.11;60.39
74343;BME280;62767;50.300;8.070;2022-08-21T01:12:00;100103.19;;;16.26;59.82
74343;BME280;62767;50.300;8.070;2022-08-21T01:14:26;100108.72;;;15.98;60.36
74343;BME280;62767;50.300;8.070;2022-08-21T01:16:53;100107.03;;;15.88;60.98
74343;BME280;62767;50.300;8.070;2022-08-21T01:19:21;100109.63;;;16.35;60.52
74343;BME280;62767;50.300;8.070;2022-08-21T01:21:47;100108.91;;;16.15;60.58
74343;BME280;62767;50.300;8.070;2022-08-21T01:24:13;100105.38;;;16.22;59.90
74343;BME280;62767;50.300;8.070;2022-08-21T01:26:40;100101.91;;;16.30;60.45
74343;BME280;62767;50.300;8.070;2022-08-21T01:29:16;100094.63;;;16.39;59.81
74343;BME280;62767;50.300;8.070;2022-08-21T01:31:45;100102.91;;;16.29;59.90
74343;BME280;62767;50.300;8.070;2022-08-21T01:34:12;100100.75;;;16.05;60.73
74343;BME280;62767;50.300;8.070;2022-08-21T01:36:38;100097.16;;;16.04;60.49
74343;BME280;62767;50.300;8.070;2022-08-21T01:39:05;100094.63;;;15.66;62.27
74343;BME280;62767;50.300;8.070;2022-08-21T01:41:31;100102.16;;;15.44;62.35
74343;BME280;62767;50.300;8.070;2022-08-21T01:43:56;100096.69;;;15.44;62.54
74343;BME280;62767;50.300;8.070;2022-08-21T01:46:22;100103.22;;;15.33;63.55
74343;BME280;62767;50.300;8.070;2022-08-21T01:48:48;100096.94;;;15.60;62.11
74343;BME280;62767;50.300;8.070;2022-08-21T01:51:14;100100.53;;;15.61;62.19
74343;BME280;62767;50.300;8.070;2022-08-21T01:53:40;100105.88;;;15.53;62.18
74343;BME280;62767;50.300;8.070;2022-08-21T01:56:11;100112.31;;;15.71;62.52
74343;BME280;62767;50.300;8.070;2022-08-21T01:58:37;100111.59;;;15.69;61.35
74343;BME280;62767;50.300;8.070;2022-08-21T02:01:03;100104.03;;;15.44;61.85
74343;BME280;62767;50.300;8.070;2022-08-21T02:03:30;100108.47;;;15.54;62.23
74343;BME280;62767;50.300;8.070;2022-08-21T02:05:56;100108.53;;;15.35;62.22
74343;BME280;62767;50.300;8.070;2022-08-21T02:08:22;100102.91;;;14.89;64.07
74343;BME280;62767;50.300;8.070;2022-08-21T02:10:51;100102.75;;;14.91;63.88
74343;BME280;62767;50.300;8.070;2022-08-21T02:13:17;100100.72;;;14.93;64.63
74343;BME280;62767;50.300;8.070;2022-08-21T02:15:44;100095.09;;;15.14;63.71
74343;BME280;62767;50.300;8.070;2022-08-21T02:18:10;100091.75;;;15.20;63.57
74343;BME280;62767;50.300;8.070;2022-08-21T02:20:41;100090.94;;;15.47;61.82
74343;BME280;62767;50.300;8.070;2022-08-21T02:23:09;100093.25;;;14.85;63.97
74343;BME280;62767;50.300;8.070;2022-08-21T02:25:36;100081.56;;;15.59;61.62
74343;BME280;62767;50.300;8.070;2022-08-21T02:28:05;100085.94;;;14.96;63.57
74343;BME280;62767;50.300;8.070;2022-08-21T02:30:36;100088.94;;;15.02;63.28
74343;BME280;62767;50.300;8.070;2022-08-21T02:33:04;100081.88;;;15.00;63.36
74343;BME280;62767;50.300;8.070;2022-08-21T02:35:30;100085.19;;;15.13;62.91
74343;BME280;62767;50.300;8.070;2022-08-21T02:38:00;100083.66;;;14.81;63.89
74343;BME280;62767;50.300;8.070;2022-08-21T02:40:28;100083.63;;;14.91;63.99
74343;BME280;62767;50.300;8.070;2022-08-21T02:42:56;100087.81;;;14.85;64.27
74343;BME280;62767;50.300;8.070;2022-08-21T02:45:22;100079.94;;;14.73;64.02
74343;BME280;62767;50.300;8.070;2022-08-21T02:47:55;100085.34;;;14.92;63.76
74343;BME280;62767;50.300;8.070;2022-08-21T02:50:24;100093.97;;;14.48;65.46
74343;BME280;62767;50.300;8.070;2022-08-21T02:52:50;100084.66;;;14.70;65.22
74343;BME280;62767;50.300;8.070;2022-08-21T02:55:26;100085.81;;;14.68;65.42
74343;BME280;62767;50.300;8.070;2022-08-21T02:57:53;100082.34;;;14.66;65.05
74343;BME280;62767;50.300;8.070;2022-08-21T03:00:20;100083.78;;;14.80;64.40
74343;BME280;62767;50.300;8.070;2022-08-21T03:02:47;100082.09;;;14.59;65.03
74343;BME280;62767;50.300;8.070;2022-08-21T03:05:13;100078.34;;;14.41;65.96
74343;BME280;62767;50.300;8.070;2022-08-21T03:07:42;100072.34;;;15.23;64.12
74343;BME280;62767;50.300;8.070;2022-08-21T03:10:08;100071.66;;;15.11;62.86
74343;BME280;62767;50.300;8.070;2022-08-21T03:12:34;100084.06;;;14.86;63.66
74343;BME280;62767;50.300;8.070;2022-08-21T03:15:05;100076.09;;;15.22;63.22
74343;BME280;62767;50.300;8.070;2022-08-21T03:17:32;100074.47;;;14.53;65.02
74343;BME280;62767;50.300;8.070;2022-08-21T03:19:58;100085.38;;;14.73;64.43
74343;BME280;62767;50.300;8.070;2022-08-21T03:22:24;100078.22;;;14.62;65.15
74343;BME280;62767;50.300;8.070;2022-08-21T03:24:50;100086.50;;;14.50;65.39
74343;BME280;62767;50.300;8.070;2022-08-21T03:27:16;100080.91;;;14.33;65.51
74343;BME280;62767;50.300;8.070;2022-08-21T03:29:42;100088.47;;;14.10;67.31
74343;BME280;62767;50.300;8.070;2022-08-21T03:32:07;100091.03;;;14.01;67.35
74343;BME280;62767;50.300;8.070;2022-08-21T03:34:37;100080.47;;;14.47;65.88
74343;BME280;62767;50.300;8.070;2022-08-21T03:37:04;100080.78;;;14.34;65.63
74343;BME280;62767;50.300;8.070;2022-08-21T03:39:30;100087.63;;;14.09;66.71
74343;BME280;62767;50.300;8.070;2022-08-21T03:41:56;100083.47;;;14.24;65.91
74343;BME280;62767;50.300;8.070;2022-08-21T03:44:21;100092.59;;;13.85;67.43
74343;BME280;62767;50.300;8.070;2022-08-21T03:46:47;100077.81;;;13.77;67.99
74343;BME280;62767;50.300;8.070;2022-08-21T03:49:12;100082.13;;;13.80;67.43
74343;BME280;62767;50.300;8.070;2022-08-21T03:51:39;100084.16;;;13.88;67.36
74343;BME280;62767;50.300;8.070;2022-08-21T03:54:04;100087.16;;;13.44;68.96
74343;BME280;62767;50.300;8.070;2022-08-21T03:56:30;100091.91;;;13.52;68.57
74343;BME280;62767;50.300;8.070;2022-08-21T03:58:56;100093.84;;;13.71;67.60
74343;BME280;62767;50.300;8.070;2022-08-21T04:01:21;100090.91;;;13.93;66.90
74343;BME280;62767;50.300;8.070;2022-08-21T04:03:47;100105.72;;;13.70;67.33
74343;BME280;62767;50.300;8.070;2022-08-21T04:06:13;100105.06;;;13.77;67.60
74343;BME280;62767;50.300;8.070;2022-08-21T04:08:38;100113.25;;;13.87;67.18
74343;BME280;62767;50.300;8.070;2022-08-21T04:11:08;100115.28;;;13.54;68.62
74343;BME280;62767;50.300;8.070;2022-08-21T04:13:35;100105.63;;;13.81;67.86
74343;BME280;62767;50.300;8.070;2022-08-21T04:16:01;100114.88;;;13.99;66.76
74343;BME280;62767;50.300;8.070;2022-08-21T04:18:26;100118.19;;;13.63;67.77
74343;BME280;62767;50.300;8.070;2022-08-21T04:20:53;100119.31;;;13.91;67.72
74343;BME280;62767;50.300;8.070;2022-08-21T04:23:20;100116.19;;;14.15;66.16
74343;BME280;62767;50.300;8.070;2022-08-21T04:25:46;100124.81;;;13.70;67.62
74343;BME280;62767;50.300;8.070;2022-08-21T04:28:12;100113.63;;;15.10;63.77
74343;BME280;62767;50.300;8.070;2022-08-21T04:30:37;100130.75;;;14.93;62.83
74343;BME280;62767;50.300;8.070;2022-08-21T04:33:03;100132.03;;;14.40;65.14
74343;BME280;62767;50.300;8.070;2022-08-21T04:35:29;100136.31;;;14.33;65.42
74343;BME280;62767;50.300;8.070;2022-08-21T04:37:56;100131.25;;;14.09;66.20
74343;BME280;62767;50.300;8.070;2022-08-21T04:40:24;100130.19;;;13.91;66.52
74343;BME280;62767;50.300;8.070;2022-08-21T04:43:11;100139.81;;;13.64;67.81
74343;BME280;62767;50.300;8.070;2022-08-21T04:45:39;100145.97;;;13.56;68.03
74343;BME280;62767;50.300;8.070;2022-08-21T04:48:08;100140.00;;;13.72;67.80
74343;BME280;62767;50.300;8.070;2022-08-21T04:50:39;100138.31;;;13.71;68.06
74343;BME280;62767;50.300;8.070;2022-08-21T04:56:37;100151.81;;;14.33;65.99
74343;BME280;62767;50.300;8.070;2022-08-21T04:59:07;100147.91;;;14.16;66.33
74343;BME280;62767;50.300;8.070;2022-08-21T05:01:36;100146.47;;;14.12;66.71
74343;BME280;62767;50.300;8.070;2022-08-21T05:04:04;100148.22;;;14.22;65.93
74343;BME280;62767;50.300;8.070;2022-08-21T05:06:33;100155.22;;;14.06;66.70
74343;BME280;62767;50.300;8.070;2022-08-21T05:09:00;100155.38;;;14.14;66.82
74343;BME280;62767;50.300;8.070;2022-08-21T05:11:27;100152.66;;;14.14;66.42
74343;BME280;62767;50.300;8.070;2022-08-21T05:13:53;100151.00;;;14.01;67.08
74343;BME280;62767;50.300;8.070;2022-08-21T05:16:18;100152.44;;;13.96;66.96
74343;BME280;62767;50.300;8.070;2022-08-21T05:18:44;100158.09;;;13.73;68.12
74343;BME280;62767;50.300;8.070;2022-08-21T05:21:10;100153.63;;;13.72;67.69
74343;BME280;62767;50.300;8.070;2022-08-21T05:23:36;100149.28;;;13.91;67.58
74343;BME280;62767;50.300;8.070;2022-08-21T05:26:02;100161.53;;;13.75;68.19
74343;BME280;62767;50.300;8.070;2022-08-21T05:28:30;100167.31;;;13.82;68.34
74343;BME280;62767;50.300;8.070;2022-08-21T05:30:56;100160.69;;;14.15;66.74
74343;BME280;62767;50.300;8.070;2022-08-21T05:33:21;100162.03;;;14.50;65.87
74343;BME280;62767;50.300;8.070;2022-08-21T05:35:50;100165.06;;;14.57;65.67
74343;BME280;62767;50.300;8.070;2022-08-21T05:38:17;100166.22;;;14.54;65.60
74343;BME280;62767;50.300;8.070;2022-08-21T05:40:43;100164.19;;;14.46;66.00
74343;BME280;62767;50.300;8.070;2022-08-21T05:43:09;100167.53;;;14.89;64.33
74343;BME280;62767;50.300;8.070;2022-08-21T05:45:34;100162.63;;;15.12;63.77
74343;BME280;62767;50.300;8.070;2022-08-21T05:50:36;100155.88;;;15.16;64.34
74343;BME280;62767;50.300;8.070;2022-08-21T05:53:03;100156.91;;;14.96;64.56
74343;BME280;62767;50.300;8.070;2022-08-21T05:55:29;100154.47;;;14.73;65.39
74343;BME280;62767;50.300;8.070;2022-08-21T05:57:55;100159.34;;;15.08;64.42
74343;BME280;62767;50.300;8.070;2022-08-21T06:00:20;100159.44;;;15.26;63.78
74343;BME280;62767;50.300;8.070;2022-08-21T06:02:48;100153.44;;;15.03;64.47
74343;BME280;62767;50.300;8.070;2022-08-21T06:05:16;100159.34;;;14.79;65.46
74343;BME280;62767;50.300;8.070;2022-08-21T06:07:42;100155.16;;;15.14;64.73
74343;BME280;62767;50.300;8.070;2022-08-21T06:10:08;100164.09;;;14.77;66.21
74343;BME280;62767;50.300;8.070;2022-08-21T06:12:34;100151.72;;;15.12;65.07
74343;BME280;62767;50.300;8.070;2022-08-21T06:14:59;100153.88;;;15.08;65.45
74343;BME280;62767;50.300;8.070;2022-08-21T06:17:25;100145.53;;;15.20;65.22
74343;BME280;62767;50.300;8.070;2022-08-21T06:19:53;100144.81;;;15.27;65.33
74343;BME280;62767;50.300;8.070;2022-08-21T06:22:20;100146.53;;;15.19;65.39
74343;BME280;62767;50.300;8.070;2022-08-21T06:24:46;100147.41;;;15.09;66.02
74343;BME280;62767;50.300;8.070;2022-08-21T06:27:11;100151.13;;;15.18;65.50
74343;BME280;62767;50.300;8.070;2022-08-21T06:29:38;100147.97;;;15.03;66.19
74343;BME280;62767;50.300;8.070;2022-08-21T06:32:04;100139.34;;;15.17;65.96
74343;BME280;62767;50.300;8.070;2022-08-21T06:34:31;100144.50;;;15.30;65.59
74343;BME280;62767;50.300;8.070;2022-08-21T06:36:57;100139.84;;;15.40;65.78
74343;BME280;62767;50.300;8.070;2022-08-21T06:39:23;100134.03;;;15.63;64.03
74343;BME280;62767;50.300;8.070;2022-08-21T06:41:48;100134.75;;;15.65;64.59
74343;BME280;62767;50.300;8.070;2022-08-21T06:44:16;100142.66;;;15.58;64.66
74343;BME280;62767;50.300;8.070;2022-08-21T06:46:42;100137.28;;;15.86;63.76
74343;BME280;62767;50.300;8.070;2022-08-21T06:49:07;100141.09;;;16.03;63.66
74343;BME280;62767;50.300;8.070;2022-08-21T06:51:33;100141.88;;;16.13;63.31
74343;BME280;62767;50.300;8.070;2022-08-21T06:53:58;100143.81;;;16.03;63.64
74343;BME280;62767;50.300;8.070;2022-08-21T06:56:24;100142.19;;;16.56;62.28
74343;BME280;62767;50.300;8.070;2022-08-21T06:58:49;100140.22;;;16.48;63.01
74343;BME280;62767;50.300;8.070;2022-08-21T07:01:15;100133.56;;;16.68;62.13
74343;BME280;62767;50.300;8.070;2022-08-21T07:03:42;100142.28;;;16.82;61.92
74343;BME280;62767;50.300;8.070;2022-08-21T07:06:10;100135.63;;;17.02;61.32
74343;BME280;62767;50.300;8.070;2022-08-21T07:08:37;100131.09;;;16.93;61.68
74343;BME280;62767;50.300;8.070;2022-08-21T07:11:09;100136.19;;;17.84;59.04
74343;BME280;62767;50.300;8.070;2022-08-21T07:13:36;100129.69;;;18.44;57.16
74343;BME280;62767;50.300;8.070;2022-08-21T07:16:01;100118.94;;;19.24;54.76
74343;BME280;62767;50.300;8.070;2022-08-21T07:18:27;100114.56;;;19.71;52.88
74343;BME280;62767;50.300;8.070;2022-08-21T07:20:54;100112.19;;;20.38;50.80
74343;BME280;62767;50.300;8.070;2022-08-21T07:25:45;100114.00;;;21.00;49.15
74343;BME280;62767;50.300;8.070;2022-08-21T07:28:11;100113.22;;;20.91;49.38
74343;BME280;62767;50.300;8.070;2022-08-21T07:30:36;100106.53;;;21.46;48.12
74343;BME280;62767;50.300;8.070;2022-08-21T07:33:02;100108.72;;;21.81;47.57
74343;BME280;62767;50.300;8.070;2022-08-21T07:35:27;100108.56;;;21.82;46.83
74343;BME280;62767;50.300;8.070;2022-08-21T07:37:53;100103.13;;;21.89;47.45
74343;BME280;62767;50.300;8.070;2022-08-21T07:40:19;100105.31;;;21.93;47.41
74343;BME280;62767;50.300;8.070;2022-08-21T07:42:47;100099.38;;;22.26;46.02
74343;BME280;62767;50.300;8.070;2022-08-21T07:45:15;100097.50;;;21.97;47.47
74343;BME280;62767;50.300;8.070;2022-08-21T07:47:41;100094.91;;;21.96;47.40
74343;BME280;62767;50.300;8.070;2022-08-21T07:50:07;100094.34;;;22.51;45.53
74343;BME280;62767;50.300;8.070;2022-08-21T07:52:33;100091.38;;;22.31;46.56
74343;BME280;62767;50.300;8.070;2022-08-21T07:54:59;100100.22;;;22.63;45.75
74343;BME280;62767;50.300;8.070;2022-08-21T07:57:25;100082.34;;;23.02;44.29
74343;BME280;62767;50.300;8.070;2022-08-21T07:59:50;100078.63;;;22.95;44.65
74343;BME280;62767;50.300;8.070;2022-08-21T08:02:24;100075.59;;;22.90;44.65
74343;BME280;62767;50.300;8.070;2022-08-21T08:04:50;100076.44;;;22.69;45.94
74343;BME280;62767;50.300;8.070;2022-08-21T08:07:16;100079.53;;;22.37;46.79
74343;BME280;62767;50.300;8.070;2022-08-21T08:09:42;100068.84;;;22.49;46.65
74343;BME280;62767;50.300;8.070;2022-08-21T08:12:09;100066.69;;;22.51;46.24
74343;BME280;62767;50.300;8.070;2022-08-21T08:14:36;100068.66;;;22.36;47.32
74343;BME280;62767;50.300;8.070;2022-08-21T08:17:02;100069.66;;;22.28;46.80
74343;BME280;62767;50.300;8.070;2022-08-21T08:19:28;100071.94;;;22.25;47.11
74343;BME280;62767;50.300;8.070;2022-08-21T08:21:54;100062.66;;;21.81;48.43
74343;BME280;62767;50.300;8.070;2022-08-21T08:24:20;100062.59;;;21.75;48.77
74343;BME280;62767;50.300;8.070;2022-08-21T08:26:46;100057.66;;;21.70;49.35
74343;BME280;62767;50.300;8.070;2022-08-21T08:29:12;100055.25;;;21.67;49.48
74343;BME280;62767;50.300;8.070;2022-08-21T08:31:38;100055.34;;;21.74;49.54
74343;BME280;62767;50.300;8.070;2022-08-21T08:34:03;100052.50;;;21.82;49.22
74343;BME280;62767;50.300;8.070;2022-08-21T08:36:34;100061.34;;;21.62;49.19
74343;BME280;62767;50.300;8.070;2022-08-21T08:39:02;100052.66;;;21.95;48.77
74343;BME280;62767;50.300;8.070;2022-08-21T08:41:29;100047.97;;;21.96;48.88
74343;BME280;62767;50.300;8.070;2022-08-21T08:44:02;100045.44;;;22.30;47.29
74343;BME280;62767;50.300;8.070;2022-08-21T08:46:40;100041.75;;;22.88;46.29
74343;BME280;62767;50.300;8.070;2022-08-21T08:55:20;100055.28;;;22.76;46.11
74343;BME280;62767;50.300;8.070;2022-08-21T08:57:39;100054.06;;;23.35;43.44
74343;BME280;62767;50.300;8.070;2022-08-21T09:00:11;100047.13;;;23.17;43.55
74343;BME280;62767;50.300;8.070;2022-08-21T09:02:41;100049.16;;;23.02;42.93
74343;BME280;62767;50.300;8.070;2022-08-21T09:05:20;100039.41;;;23.41;42.41
74343;BME280;62767;50.300;8.070;2022-08-21T09:10:51;100035.91;;;22.76;44.06
74343;BME280;62767;50.300;8.070;2022-08-21T09:13:30;100033.41;;;23.02;43.27
74343;BME280;62767;50.300;8.070;2022-08-21T09:21:45;100028.91;;;23.30;42.38
74343;BME280;62767;50.300;8.070;2022-08-21T09:25:24;100024.69;;;23.34;42.55
74343;BME280;62767;50.300;8.070;2022-08-21T09:27:18;100021.59;;;23.50;41.60
74343;BME280;62767;50.300;8.070;2022-08-21T09:29:47;100018.63;;;23.52;41.45
74343;BME280;62767;50.300;8.070;2022-08-21T09:32:18;100019.03;;;23.90;41.28
74343;BME280;62767;50.300;8.070;2022-08-21T09:35:17;100017.78;;;23.51;42.31
74343;BME280;62767;50.300;8.070;2022-08-21T09:43:05;100018.47;;;24.01;39.08
74343;BME280;62767;50.300;8.070;2022-08-21T09:45:32;100014.16;;;24.80;37.72
74343;BME280;62767;50.300;8.070;2022-08-21T09:48:38;100003.03;;;25.06;36.27
74343;BME280;62767;50.300;8.070;2022-08-21T09:51:07;99999.00;;;24.89;36.13
74343;BME280;62767;50.300;8.070;2022-08-21T09:53:34;100001.16;;;24.67;36.06
74343;BME280;62767;50.300;8.070;2022-08-21T09:56:14;99997.72;;;25.32;35.41
74343;BME280;62767;50.300;8.070;2022-08-21T09:58:59;99996.91;;;25.89;35.00
74343;BME280;62767;50.300;8.070;2022-08-21T10:01:25;99994.63;;;25.60;34.73
74343;BME280;62767;50.300;8.070;2022-08-21T10:04:08;99992.78;;;25.99;33.50
74343;BME280;62767;50.300;8.070;2022-08-21T10:06:34;99992.50;;;26.45;32.04
74343;BME280;62767;50.300;8.070;2022-08-21T10:09:22;99987.50;;;26.60;32.04
74343;BME280;62767;50.300;8.070;2022-08-21T10:12:21;99972.25;;;26.95;31.79
74343;BME280;62767;50.300;8.070;2022-08-21T10:17:45;99971.19;;;26.39;31.54
74343;BME280;62767;50.300;8.070;2022-08-21T10:20:23;99969.56;;;26.25;32.26
74343;BME280;62767;50.300;8.070;2022-08-21T10:31:18;99949.63;;;27.09;29.70
74343;BME280;62767;50.300;8.070;2022-08-21T10:42:08;99949.59;;;27.53;28.14
74343;BME280;62767;50.300;8.070;2022-08-21T10:44:53;99941.44;;;27.88;30.05
74343;BME280;62767;50.300;8.070;2022-08-21T10:52:34;99940.78;;;28.05;28.12
74343;BME280;62767;50.300;8.070;2022-08-21T10:55:09;99942.78;;;27.30;29.29
74343;BME280;62767;50.300;8.070;2022-08-21T10:57:43;99939.03;;;27.73;29.27
74343;BME280;62767;50.300;8.070;2022-08-21T11:00:18;99929.25;;;26.91;30.59
74343;BME280;62767;50.300;8.070;2022-08-21T11:03:04;99934.19;;;26.38;31.05
74343;BME280;62767;50.300;8.070;2022-08-21T11:05:35;99928.91;;;26.30;31.57
74343;BME280;62767;50.300;8.070;2022-08-21T11:08:09;99919.75;;;26.98;30.68
74343;BME280;62767;50.300;8.070;2022-08-21T11:10:43;99918.31;;;27.51;29.50
74343;BME280;62767;50.300;8.070;2022-08-21T11:13:18;99926.25;;;26.42;29.91
74343;BME280;62767;50.300;8.070;2022-08-21T11:16:07;99913.66;;;27.08;29.93
74343;BME280;62767;50.300;8.070;2022-08-21T11:18:50;99916.91;;;27.05;28.83
74343;BME280;62767;50.300;8.070;2022-08-21T11:21:42;99912.50;;;27.71;28.66
74343;BME280;62767;50.300;8.070;2022-08-21T11:24:28;99909.72;;;27.71;28.94
74343;BME280;62767;50.300;8.070;2022-08-21T11:27:39;99900.09;;;28.15;28.19
74343;BME280;62767;50.300;8.070;2022-08-21T11:29:47;99907.88;;;27.28;29.06
74343;BME280;62767;50.300;8.070;2022-08-21T11:37:34;99902.28;;;28.13;27.66
74343;BME280;62767;50.300;8.070;2022-08-21T11:40:16;99900.22;;;28.62;27.01
74343;BME280;62767;50.300;8.070;2022-08-21T11:45:48;99904.00;;;28.80;25.69
74343;BME280;62767;50.300;8.070;2022-08-21T11:51:18;99888.81;;;28.87;25.56
74343;BME280;62767;50.300;8.070;2022-08-21T11:53:50;99888.91;;;28.46;26.18
74343;BME280;62767;50.300;8.070;2022-08-21T11:56:31;99893.53;;;28.75;26.18
74343;BME280;62767;50.300;8.070;2022-08-21T11:59:07;99899.34;;;28.85;26.30
74343;BME280;62767;50.300;8.070;2022-08-21T12:01:39;99891.59;;;28.52;25.45
74343;BME280;62767;50.300;8.070;2022-08-21T12:04:33;99895.00;;;28.89;26.06
74343;BME280;62767;50.300;8.070;2022-08-21T12:07:15;99890.88;;;28.57;25.67
74343;BME280;62767;50.300;8.070;2022-08-21T12:09:53;99881.63;;;28.03;25.82
74343;BME280;62767;50.300;8.070;2022-08-21T12:15:03;99872.06;;;28.64;26.15
74343;BME280;62767;50.300;8.070;2022-08-21T12:17:36;99881.81;;;28.19;26.66
74343;BME280;62767;50.300;8.070;2022-08-21T12:26:00;99879.53;;;29.34;25.33
74343;BME280;62767;50.300;8.070;2022-08-21T12:28:28;99880.19;;;29.24;26.16
74343;BME280;62767;50.300;8.070;2022-08-21T12:30:55;99883.72;;;29.60;25.90
74343;BME280;62767;50.300;8.070;2022-08-21T12:33:30;99875.44;;;29.25;24.54
74343;BME280;62767;50.300;8.070;2022-08-21T12:36:20;99886.56;;;29.37;25.67
74343;BME280;62767;50.300;8.070;2022-08-21T12:39:04;99882.25;;;28.58;26.51
74343;BME280;62767;50.300;8.070;2022-08-21T12:42:00;99873.88;;;28.70;26.64
74343;BME280;62767;50.300;8.070;2022-08-21T12:44:41;99873.50;;;29.14;25.36
74343;BME280;62767;50.300;8.070;2022-08-21T12:47:33;99866.88;;;29.43;24.41
74343;BME280;62767;50.300;8.070;2022-08-21T12:50:08;99876.66;;;29.58;24.48
74343;BME280;62767;50.300;8.070;2022-08-21T12:52:54;99871.63;;;29.43;25.13
74343;BME280;62767;50.300;8.070;2022-08-21T12:55:29;99855.63;;;29.95;24.57
74343;BME280;62767;50.300;8.070;2022-08-21T12:57:54;99859.38;;;30.01;24.80
74343;BME280;62767;50.300;8.070;2022-08-21T13:00:23;99846.19;;;30.30;24.39
74343;BME280;62767;50.300;8.070;2022-08-21T13:02:50;99840.88;;;30.29;24.50
74343;BME280;62767;50.300;8.070;2022-08-21T13:05:37;99847.53;;;29.01;24.46
74343;BME280;62767;50.300;8.070;2022-08-21T13:08:04;99848.63;;;29.00;24.85
74343;BME280;62767;50.300;8.070;2022-08-21T13:10:32;99838.69;;;29.04;24.72
74343;BME280;62767;50.300;8.070;2022-08-21T13:13:06;99847.91;;;28.81;24.94
74343;BME280;62767;50.300;8.070;2022-08-21T13:15:35;99844.03;;;28.71;24.89
74343;BME280;62767;50.300;8.070;2022-08-21T13:18:02;99837.09;;;29.49;24.61
74343;BME280;62767;50.300;8.070;2022-08-21T13:20:37;99837.41;;;29.36;23.51
74343;BME280;62767;50.300;8.070;2022-08-21T13:23:18;99830.38;;;29.90;23.95
74343;BME280;62767;50.300;8.070;2022-08-21T13:25:44;99835.31;;;30.00;22.71
74343;BME280;62767;50.300;8.070;2022-08-21T13:30:52;99827.28;;;30.20;23.73
74343;BME280;62767;50.300;8.070;2022-08-21T13:33:20;99835.25;;;30.12;23.55
74343;BME280;62767;50.300;8.070;2022-08-21T13:38:17;99819.66;;;30.50;22.84
74343;BME280;62767;50.300;8.070;2022-08-21T13:40:49;99813.03;;;30.56;22.59
74343;BME280;62767;50.300;8.070;2022-08-21T13:43:18;99812.44;;;30.54;22.64
74343;BME280;62767;50.300;8.070;2022-08-21T13:45:53;99820.06;;;30.58;22.54
74343;BME280;62767;50.300;8.070;2022-08-21T13:48:20;99816.94;;;30.55;22.22
74343;BME280;62767;50.300;8.070;2022-08-21T13:50:46;99815.63;;;30.23;21.83
74343;BME280;62767;50.300;8.070;2022-08-21T13:53:33;99814.34;;;29.57;22.36
74343;BME280;62767;50.300;8.070;2022-08-21T13:56:00;99820.13;;;28.98;22.86
74343;BME280;62767;50.300;8.070;2022-08-21T13:58:27;99818.97;;;29.63;22.35
74343;BME280;62767;50.300;8.070;2022-08-21T14:00:54;99818.91;;;29.75;21.81
74343;BME280;62767;50.300;8.070;2022-08-21T14:03:42;99821.66;;;29.87;22.27
74343;BME280;62767;50.300;8.070;2022-08-21T14:06:13;99815.50;;;30.18;21.69
74343;BME280;62767;50.300;8.070;2022-08-21T14:08:40;99807.81;;;30.26;21.09
74343;BME280;62767;50.300;8.070;2022-08-21T14:11:11;99817.06;;;29.81;21.07
74343;BME280;62767;50.300;8.070;2022-08-21T14:13:41;99811.56;;;29.57;21.37
74343;BME280;62767;50.300;8.070;2022-08-21T14:16:16;99810.00;;;29.49;20.99
74343;BME280;62767;50.300;8.070;2022-08-21T14:18:48;99813.19;;;29.01;22.17
74343;BME280;62767;50.300;8.070;2022-08-21T14:21:24;99797.50;;;29.11;22.54
74343;BME280;62767;50.300;8.070;2022-08-21T14:24:03;99805.19;;;29.04;22.28